createdAt,value
2024-04-23T00:00:24.536Z,615.00
2024-04-23T00:01:24.586Z,615.00
2024-04-23T00:02:24.519Z,612.00
2024-04-23T00:03:24.547Z,613.00
2024-04-23T00:04:24.599Z,611.00
2024-04-23T00:05:24.515Z,612.00
2024-04-23T00:06:24.483Z,608.00
2024-04-23T00:07:24.528Z,610.00
2024-04-23T00:08:24.470Z,611.00
2024-04-23T00:09:24.470Z,608.00
2024-04-23T00:10:24.496Z,611.00
2024-04-23T00:11:24.512Z,608.00
2024-04-23T00:12:24.458Z,607.00
2024-04-23T00:13:24.474Z,608.00
2024-04-23T00:14:24.424Z,603.00
2024-04-23T00:15:24.398Z,608.00
2024-04-23T00:16:24.388Z,609.00
2024-04-23T00:17:24.365Z,604.00
2024-04-23T00:18:24.428Z,604.00
2024-04-23T00:19:24.369Z,604.00
2024-04-23T00:20:24.330Z,602.00
2024-04-23T00:21:24.309Z,601.00
2024-04-23T00:22:24.368Z,603.00
2024-04-23T00:23:24.315Z,603.00
2024-04-23T00:24:24.291Z,600.00
2024-04-23T00:25:24.296Z,603.00
2024-04-23T00:26:24.242Z,603.00
2024-04-23T00:27:24.218Z,604.00
2024-04-23T00:28:24.225Z,603.00
2024-04-23T00:29:24.212Z,607.00
2024-04-23T00:30:24.201Z,602.00
2024-04-23T00:31:24.216Z,600.00
2024-04-23T00:32:24.223Z,606.00
2024-04-23T00:33:24.257Z,605.00
2024-04-23T00:34:24.239Z,604.00
2024-04-23T00:35:24.198Z,607.00
2024-04-23T00:36:24.179Z,606.00
2024-04-23T00:37:24.192Z,612.00
2024-04-23T00:38:24.157Z,610.00
2024-04-23T00:39:24.146Z,616.00
2024-04-23T00:40:24.176Z,617.00
2024-04-23T00:41:24.137Z,612.00
2024-04-23T00:42:24.148Z,613.00
2024-04-23T00:43:24.147Z,612.00
2024-04-23T00:44:24.133Z,614.00
2024-04-23T00:45:24.136Z,618.00
2024-04-23T00:46:24.140Z,616.00
2024-04-23T00:47:24.123Z,612.00
2024-04-23T00:48:24.115Z,605.00
2024-04-23T00:49:24.070Z,605.00
2024-04-23T00:50:24.018Z,607.00
2024-04-23T00:51:24.018Z,609.00
2024-04-23T00:52:24.080Z,608.00
2024-04-23T00:53:24.003Z,608.00
2024-04-23T00:54:24.086Z,612.00
2024-04-23T00:55:24.048Z,605.00
2024-04-23T00:56:23.970Z,610.00
2024-04-23T00:57:23.993Z,608.00
2024-04-23T00:58:23.993Z,611.00
2024-04-23T00:59:23.981Z,611.00
2024-04-23T01:00:23.966Z,612.00
2024-04-23T01:01:24.010Z,610.00
2024-04-23T01:02:24.022Z,608.00
2024-04-23T01:03:24.008Z,605.00
2024-04-23T01:04:23.915Z,603.00
2024-04-23T01:05:23.883Z,603.00
2024-04-23T01:06:23.882Z,602.00
2024-04-23T01:07:23.905Z,603.00
2024-04-23T01:08:23.852Z,604.00
2024-04-23T01:09:23.831Z,606.00
2024-04-23T01:10:23.847Z,606.00
2024-04-23T01:11:23.844Z,604.00
2024-04-23T01:12:23.818Z,604.00
2024-04-23T01:13:23.896Z,605.00
2024-04-23T01:14:23.818Z,600.00
2024-04-23T01:15:23.809Z,604.00
2024-04-23T01:16:23.897Z,600.00
2024-04-23T01:17:23.871Z,606.00
2024-04-23T01:18:23.838Z,602.00
2024-04-23T01:19:23.802Z,603.00
2024-04-23T01:20:23.805Z,608.00
2024-04-23T01:21:23.793Z,603.00
2024-04-23T01:22:23.806Z,605.00
2024-04-23T01:23:23.806Z,605.00
2024-04-23T01:24:23.788Z,607.00
2024-04-23T01:25:23.922Z,607.00
2024-04-23T01:26:23.779Z,607.00
2024-04-23T01:27:23.771Z,610.00
2024-04-23T01:28:24.017Z,608.00
2024-04-23T01:29:23.776Z,610.00
2024-04-23T01:30:23.782Z,611.00
2024-04-23T01:31:23.799Z,613.00
2024-04-23T01:32:23.881Z,616.00
2024-04-23T01:33:23.881Z,619.00
2024-04-23T01:34:23.788Z,620.00
2024-04-23T01:35:23.789Z,616.00
2024-04-23T01:36:23.787Z,616.00
2024-04-23T01:37:23.809Z,616.00
2024-04-23T01:38:23.782Z,616.00
2024-04-23T01:39:23.798Z,618.00
2024-04-23T01:40:23.856Z,616.00
2024-04-23T01:41:23.789Z,617.00
2024-04-23T01:42:23.783Z,622.00
2024-04-23T01:43:23.783Z,618.00
2024-04-23T01:44:23.763Z,620.00
2024-04-23T01:45:23.777Z,616.00
2024-04-23T01:46:23.746Z,617.00
2024-04-23T01:47:23.873Z,622.00
2024-04-23T01:48:23.832Z,614.00
2024-04-23T01:49:23.726Z,611.00
2024-04-23T01:50:23.735Z,612.00
2024-04-23T01:51:23.717Z,618.00
2024-04-23T01:52:23.721Z,621.00
2024-04-23T01:53:23.723Z,617.00
2024-04-23T01:54:23.759Z,621.00
2024-04-23T01:55:23.729Z,623.00
2024-04-23T01:56:23.715Z,622.00
2024-04-23T01:57:23.721Z,629.00
2024-04-23T01:58:23.712Z,625.00
2024-04-23T01:59:23.690Z,622.00
2024-04-23T02:00:23.690Z,622.00
2024-04-23T02:01:23.662Z,625.00
2024-04-23T02:02:23.662Z,630.00
2024-04-23T02:03:23.700Z,628.00
2024-04-23T02:04:23.649Z,626.00
2024-04-23T02:05:23.627Z,629.00
2024-04-23T02:06:23.620Z,625.00
2024-04-23T02:07:23.615Z,633.00
2024-04-23T02:08:23.608Z,629.00
2024-04-23T02:09:23.608Z,634.00
2024-04-23T02:10:23.626Z,634.00
2024-04-23T02:11:23.728Z,639.00
2024-04-23T02:12:23.599Z,633.00
2024-04-23T02:13:23.575Z,636.00
2024-04-23T02:14:23.569Z,639.00
2024-04-23T02:15:23.536Z,631.00
2024-04-23T02:16:23.525Z,635.00
2024-04-23T02:17:23.510Z,634.00
2024-04-23T02:18:23.574Z,637.00
2024-04-23T02:19:23.483Z,636.00
2024-04-23T02:20:23.492Z,637.00
2024-04-23T02:21:23.601Z,636.00
2024-04-23T02:22:23.495Z,635.00
2024-04-23T02:23:23.488Z,635.00
2024-04-23T02:24:23.489Z,637.00
2024-04-23T02:25:24.138Z,635.00
2024-04-23T02:26:23.530Z,635.00
2024-04-23T02:27:23.473Z,636.00
2024-04-23T02:28:23.475Z,638.00
2024-04-23T02:29:23.478Z,638.00
2024-04-23T02:30:23.487Z,644.00
2024-04-23T02:31:23.475Z,643.00
2024-04-23T02:32:23.570Z,643.00
2024-04-23T02:33:23.634Z,644.00
2024-04-23T02:34:23.539Z,648.00
2024-04-23T02:35:23.509Z,649.00
2024-04-23T02:36:23.526Z,646.00
2024-04-23T02:37:23.523Z,650.00
2024-04-23T02:38:23.544Z,645.00
2024-04-23T02:39:23.528Z,647.00
2024-04-23T02:40:23.552Z,648.00
2024-04-23T02:41:23.542Z,649.00
2024-04-23T02:42:23.540Z,647.00
2024-04-23T02:43:23.536Z,648.00
2024-04-23T02:44:23.554Z,653.00
2024-04-23T02:45:23.552Z,652.00
2024-04-23T02:46:23.543Z,653.00
2024-04-23T02:47:23.579Z,657.00
2024-04-23T02:48:23.629Z,658.00
2024-04-23T02:49:23.569Z,654.00
2024-04-23T02:50:23.570Z,652.00
2024-04-23T02:51:23.561Z,657.00
2024-04-23T02:52:23.552Z,658.00
2024-04-23T02:53:23.526Z,659.00
2024-04-23T02:54:23.567Z,655.00
2024-04-23T02:55:23.889Z,655.00
2024-04-23T02:56:23.554Z,658.00
2024-04-23T02:57:23.547Z,655.00
2024-04-23T02:58:23.550Z,657.00
2024-04-23T02:59:23.557Z,652.00
2024-04-23T03:00:23.578Z,653.00
2024-04-23T03:01:23.577Z,654.00
2024-04-23T03:02:23.614Z,652.00
2024-04-23T03:03:23.568Z,653.00
2024-04-23T03:04:23.531Z,653.00
2024-04-23T03:05:23.532Z,649.00
2024-04-23T03:06:23.507Z,649.00
2024-04-23T03:07:23.498Z,650.00
2024-04-23T03:08:23.470Z,652.00
2024-04-23T03:09:23.461Z,648.00
2024-04-23T03:10:23.510Z,652.00
2024-04-23T03:11:23.476Z,653.00
2024-04-23T03:12:23.447Z,651.00
2024-04-23T03:13:23.452Z,653.00
2024-04-23T03:14:23.443Z,651.00
2024-04-23T03:15:23.431Z,650.00
2024-04-23T03:16:23.424Z,650.00
2024-04-23T03:17:23.491Z,653.00
2024-04-23T03:18:23.540Z,652.00
2024-04-23T03:19:23.446Z,649.00
2024-04-23T03:20:23.423Z,651.00
2024-04-23T03:21:23.421Z,651.00
2024-04-23T03:22:23.406Z,657.00
2024-04-23T03:23:23.411Z,653.00
2024-04-23T03:24:23.429Z,655.00
2024-04-23T03:25:23.458Z,651.00
2024-04-23T03:26:23.415Z,654.00
2024-04-23T03:27:23.436Z,648.00
2024-04-23T03:28:23.419Z,651.00
2024-04-23T03:29:23.415Z,651.00
2024-04-23T03:30:23.413Z,652.00
2024-04-23T03:31:23.421Z,654.00
2024-04-23T03:32:23.532Z,653.00
2024-04-23T03:33:23.463Z,652.00
2024-04-23T03:34:23.496Z,652.00
2024-04-23T03:35:23.438Z,652.00
2024-04-23T03:36:23.432Z,647.00
2024-04-23T03:37:23.422Z,649.00
2024-04-23T03:38:23.370Z,649.00
2024-04-23T03:39:23.357Z,651.00
2024-04-23T03:40:23.348Z,649.00
2024-04-23T03:41:23.325Z,646.00
2024-04-23T03:42:23.339Z,650.00
2024-04-23T03:43:23.346Z,652.00
2024-04-23T03:44:23.346Z,648.00
2024-04-23T03:45:23.331Z,646.00
2024-04-23T03:46:23.332Z,647.00
2024-04-23T03:47:23.342Z,648.00
2024-04-23T03:48:23.346Z,646.00
2024-04-23T03:49:23.324Z,650.00
2024-04-23T03:50:26.442Z,649.00
2024-04-23T03:51:23.260Z,649.00
2024-04-23T03:52:23.211Z,648.00
2024-04-23T03:53:23.150Z,644.00
2024-04-23T03:54:23.101Z,644.00
2024-04-23T03:55:23.053Z,644.00
2024-04-23T03:56:22.995Z,645.00
2024-04-23T03:57:24.152Z,645.00
2024-04-23T03:58:22.887Z,643.00
2024-04-23T03:59:22.819Z,645.00
2024-04-23T04:00:22.814Z,643.00
2024-04-23T04:01:22.722Z,645.00
2024-04-23T04:02:22.799Z,648.00
2024-04-23T04:03:22.666Z,648.00
2024-04-23T04:04:22.555Z,646.00
2024-04-23T04:05:22.512Z,646.00
2024-04-23T04:06:22.441Z,643.00
2024-04-23T04:07:22.378Z,640.00
2024-04-23T04:08:22.324Z,641.00
2024-04-23T04:09:22.279Z,641.00
2024-04-23T04:10:22.245Z,643.00
2024-04-23T04:11:22.346Z,637.00
2024-04-23T04:12:22.173Z,640.00
2024-04-23T04:13:24.220Z,640.00
2024-04-23T04:14:22.191Z,645.00
2024-04-23T04:15:22.214Z,642.00
2024-04-23T04:16:22.185Z,640.00
2024-04-23T04:17:22.264Z,641.00
2024-04-23T04:18:22.438Z,644.00
2024-04-23T04:19:22.204Z,645.00
2024-04-23T04:20:22.223Z,642.00
2024-04-23T04:21:22.218Z,643.00
2024-04-23T04:22:22.215Z,643.00
2024-04-23T04:23:22.237Z,642.00
2024-04-23T04:24:22.220Z,643.00
2024-04-23T04:25:22.257Z,646.00
2024-04-23T04:26:22.239Z,647.00
2024-04-23T04:27:22.242Z,644.00
2024-04-23T04:28:22.253Z,643.00
2024-04-23T04:29:22.255Z,646.00
2024-04-23T04:30:22.259Z,653.00
2024-04-23T04:31:22.269Z,649.00
2024-04-23T04:32:22.276Z,650.00
2024-04-23T04:33:22.290Z,651.00
2024-04-23T04:34:22.212Z,646.00
2024-04-23T04:35:22.177Z,646.00
2024-04-23T04:36:22.116Z,647.00
2024-04-23T04:37:22.091Z,653.00
2024-04-23T04:38:22.078Z,652.00
2024-04-23T04:39:22.065Z,653.00
2024-04-23T04:40:22.052Z,650.00
2024-04-23T04:41:22.023Z,650.00
2024-04-23T04:42:22.000Z,651.00
2024-04-23T04:43:21.980Z,653.00
2024-04-23T04:44:21.960Z,656.00
2024-04-23T04:45:21.925Z,653.00
2024-04-23T04:46:21.902Z,652.00
2024-04-23T04:47:21.976Z,650.00
2024-04-23T04:48:22.001Z,651.00
2024-04-23T04:49:21.835Z,650.00
2024-04-23T04:50:21.836Z,654.00
2024-04-23T04:51:21.821Z,650.00
2024-04-23T04:52:21.825Z,651.00
2024-04-23T04:53:21.816Z,653.00
2024-04-23T04:54:21.816Z,649.00
2024-04-23T04:55:23.493Z,654.00
2024-04-23T04:56:21.722Z,649.00
2024-04-23T04:57:21.667Z,649.00
2024-04-23T04:58:21.614Z,648.00
2024-04-23T05:00:20.051Z,600.00
2024-04-23T05:01:20.027Z,600.00
2024-04-23T05:02:20.049Z,600.00
2024-04-23T05:03:20.032Z,600.00
2024-04-23T05:04:20.109Z,600.00
2024-04-23T05:05:20.039Z,601.00
2024-04-23T05:06:20.051Z,603.00
2024-04-23T05:07:20.044Z,604.00
2024-04-23T05:08:20.045Z,604.00
2024-04-23T05:09:20.047Z,602.00
2024-04-23T05:10:20.062Z,602.00
2024-04-23T05:11:20.052Z,605.00
2024-04-23T05:12:20.102Z,606.00
2024-04-23T05:13:20.053Z,605.00
2024-04-23T05:14:20.061Z,600.00
2024-04-23T05:15:20.087Z,608.00
2024-04-23T05:16:20.077Z,603.00
2024-04-23T05:17:20.107Z,602.00
2024-04-23T05:18:20.135Z,609.00
2024-04-23T05:19:20.081Z,602.00
2024-04-23T05:20:20.086Z,603.00
2024-04-23T05:21:20.086Z,605.00
2024-04-23T05:22:20.091Z,608.00
2024-04-23T05:23:20.107Z,611.00
2024-04-23T05:24:20.157Z,611.00
2024-04-23T05:25:20.144Z,610.00
2024-04-23T05:26:20.133Z,615.00
2024-04-23T05:27:20.138Z,617.00
2024-04-23T05:28:20.134Z,614.00
2024-04-23T05:29:20.143Z,610.00
2024-04-23T05:30:20.183Z,611.00
2024-04-23T05:31:20.608Z,610.00
2024-04-23T05:32:20.699Z,610.00
2024-04-23T05:33:20.219Z,620.00
2024-04-23T05:34:20.171Z,635.00
2024-04-23T05:35:20.152Z,655.00
2024-04-23T05:36:20.620Z,691.00
2024-04-23T05:37:20.636Z,741.00
2024-04-23T05:38:20.348Z,793.00
2024-04-23T05:39:20.292Z,840.00
2024-04-23T05:40:20.292Z,899.00
2024-04-23T05:41:20.618Z,959.00
2024-04-23T05:42:20.312Z,1015.00
2024-04-23T05:43:20.329Z,1091.00
2024-04-23T05:44:23.345Z,1138.00
2024-04-23T05:45:20.322Z,1189.00
2024-04-23T05:46:20.629Z,1225.00
2024-04-23T05:47:20.684Z,1262.00
2024-04-23T05:48:20.401Z,1306.00
2024-04-23T05:49:20.294Z,1331.00
2024-04-23T05:50:26.087Z,1380.00
2024-04-23T05:51:21.269Z,1381.00
2024-04-23T05:52:26.700Z,1388.00
2024-04-23T05:53:21.290Z,1383.00
2024-04-23T05:54:20.253Z,1391.00
2024-04-23T05:55:20.252Z,1401.00
2024-04-23T05:56:20.269Z,1421.00
2024-04-23T05:57:20.622Z,1431.00
2024-04-23T05:58:20.260Z,1428.00
2024-04-23T05:59:20.222Z,1431.00
2024-04-23T06:00:20.221Z,1431.00
2024-04-23T06:01:20.727Z,1436.00
2024-04-23T06:02:20.191Z,1446.00
2024-04-23T06:03:20.224Z,1477.00
2024-04-23T06:04:20.227Z,1496.00
2024-04-23T06:05:20.307Z,1515.00
2024-04-23T06:06:20.624Z,1520.00
2024-04-23T06:07:20.384Z,1538.00
2024-04-23T06:08:20.470Z,1547.00
2024-04-23T06:09:20.435Z,1555.00
2024-04-23T06:10:20.460Z,1555.00
2024-04-23T06:11:20.567Z,1566.00
2024-04-23T06:12:20.530Z,1548.00
2024-04-23T06:13:20.568Z,1542.00
2024-04-23T06:14:20.608Z,1526.00
2024-04-23T06:15:20.634Z,1503.00
2024-04-23T06:16:20.674Z,1540.00
2024-04-23T06:17:28.422Z,1602.00
2024-04-23T06:18:21.746Z,1604.00
2024-04-23T06:19:20.695Z,1614.00
2024-04-23T06:20:20.697Z,1635.00
2024-04-23T06:21:21.721Z,1654.00
2024-04-23T06:22:20.668Z,1667.00
2024-04-23T06:23:20.655Z,1649.00
2024-04-23T06:24:20.660Z,1646.00
2024-04-23T06:25:20.647Z,1663.00
2024-04-23T06:26:20.657Z,1668.00
2024-04-23T06:27:20.654Z,1675.00
2024-04-23T06:28:20.676Z,1686.00
2024-04-23T06:29:20.649Z,1689.00
2024-04-23T06:30:20.644Z,1683.00
2024-04-23T06:31:20.663Z,1683.00
2024-04-23T06:32:20.853Z,1658.00
2024-04-23T06:33:21.274Z,1640.00
2024-04-23T06:34:20.736Z,1634.00
2024-04-23T06:35:20.769Z,1609.00
2024-04-23T06:36:21.202Z,1597.00
2024-04-23T06:37:21.438Z,1610.00
2024-04-23T06:38:20.779Z,1609.00
2024-04-23T06:39:20.776Z,1616.00
2024-04-23T06:40:25.780Z,1619.00
2024-04-23T06:41:21.779Z,1619.00
2024-04-23T06:42:20.755Z,1622.00
2024-04-23T06:43:21.138Z,1621.00
2024-04-23T06:44:20.734Z,1617.00
2024-04-23T06:45:25.883Z,1601.00
2024-04-23T06:46:27.065Z,1612.00
2024-04-23T06:47:26.750Z,1614.00
2024-04-23T06:48:21.714Z,1619.00
2024-04-23T06:49:20.707Z,1619.00
2024-04-23T06:50:20.697Z,1581.00
2024-04-23T06:51:20.698Z,1570.00
2024-04-23T06:52:20.708Z,1554.00
2024-04-23T06:53:20.707Z,1530.00
2024-04-23T06:54:20.678Z,1524.00
2024-04-23T06:55:20.669Z,1523.00
2024-04-23T06:56:20.662Z,1531.00
2024-04-23T06:57:20.695Z,1517.00
2024-04-23T06:58:24.222Z,1517.00
2024-04-23T06:59:21.138Z,1517.00
2024-04-23T07:00:20.624Z,1503.00
2024-04-23T07:01:20.611Z,1484.00
2024-04-23T07:02:20.798Z,1476.00
2024-04-23T07:03:20.619Z,1454.00
2024-04-23T07:04:20.573Z,1442.00
2024-04-23T07:05:20.568Z,1424.00
2024-04-23T07:06:20.560Z,1412.00
2024-04-23T07:07:20.525Z,1386.00
2024-04-23T07:08:20.524Z,1381.00
2024-04-23T07:09:20.511Z,1394.00
2024-04-23T07:10:20.499Z,1434.00
2024-04-23T07:11:20.616Z,1459.00
2024-04-23T07:12:20.478Z,1479.00
2024-04-23T07:13:20.465Z,1493.00
2024-04-23T07:14:20.456Z,1503.00
2024-04-23T07:15:20.685Z,1516.00
2024-04-23T07:16:20.443Z,1526.00
2024-04-23T07:17:20.463Z,1527.00
2024-04-23T07:18:20.480Z,1546.00
2024-04-23T07:19:20.474Z,1539.00
2024-04-23T07:20:20.446Z,1533.00
2024-04-23T07:21:20.383Z,1538.00
2024-04-23T07:22:20.380Z,1550.00
2024-04-23T07:23:20.365Z,1556.00
2024-04-23T07:24:20.346Z,1552.00
2024-04-23T07:25:23.103Z,1534.00
2024-04-23T07:26:20.656Z,1534.00
2024-04-23T07:27:20.585Z,1500.00
2024-04-23T07:28:20.310Z,1490.00
2024-04-23T07:29:20.279Z,1460.00
2024-04-23T07:30:20.274Z,1465.00
2024-04-23T07:31:20.659Z,1456.00
2024-04-23T07:32:20.371Z,1450.00
2024-04-23T07:33:20.431Z,1416.00
2024-04-23T07:34:20.249Z,1408.00
2024-04-23T07:35:20.376Z,1398.00
2024-04-23T07:36:20.207Z,1391.00
2024-04-23T07:37:20.187Z,1378.00
2024-04-23T07:38:20.164Z,1401.00
2024-04-23T07:39:20.157Z,1395.00
2024-04-23T07:40:20.146Z,1389.00
2024-04-23T07:41:20.120Z,1370.00
2024-04-23T07:42:20.112Z,1384.00
2024-04-23T07:43:20.132Z,1385.00
2024-04-23T07:44:20.080Z,1377.00
2024-04-23T07:45:20.054Z,1380.00
2024-04-23T07:46:20.000Z,1381.00
2024-04-23T07:47:20.142Z,1376.00
2024-04-23T07:48:20.027Z,1370.00
2024-04-23T07:49:19.945Z,1364.00
2024-04-23T07:50:19.924Z,1371.00
2024-04-23T07:51:19.898Z,1360.00
2024-04-23T07:52:19.883Z,1356.00
2024-04-23T07:53:19.871Z,1353.00
2024-04-23T07:54:19.852Z,1349.00
2024-04-23T07:55:19.856Z,1344.00
2024-04-23T07:56:19.890Z,1325.00
2024-04-23T07:57:19.930Z,1318.00
2024-04-23T07:58:19.964Z,1309.00
2024-04-23T07:59:20.009Z,1304.00
2024-04-23T08:00:20.082Z,1231.00
2024-04-23T08:01:20.281Z,1218.00
2024-04-23T08:02:20.201Z,1122.00
2024-04-23T08:03:20.474Z,1058.00
2024-04-23T08:04:20.106Z,1025.00
2024-04-23T08:05:20.113Z,971.00
2024-04-23T08:06:20.100Z,916.00
2024-04-23T08:07:20.154Z,870.00
2024-04-23T08:08:20.229Z,804.00
2024-04-23T08:09:20.247Z,760.00
2024-04-23T08:10:20.243Z,729.00
2024-04-23T08:11:20.324Z,702.00
2024-04-23T08:12:20.238Z,694.00
2024-04-23T08:13:20.260Z,685.00
2024-04-23T08:14:20.252Z,688.00
2024-04-23T08:15:20.282Z,662.00
2024-04-23T08:16:20.287Z,666.00
2024-04-23T08:17:20.388Z,674.00
2024-04-23T08:18:20.366Z,678.00
2024-04-23T08:19:20.324Z,663.00
2024-04-23T08:20:20.379Z,651.00
2024-04-23T08:21:20.676Z,649.00
2024-04-23T08:22:20.480Z,651.00
2024-04-23T08:23:20.537Z,652.00
2024-04-23T08:24:20.585Z,654.00
2024-04-23T08:25:20.615Z,656.00
2024-04-23T08:26:20.736Z,657.00
2024-04-23T08:27:20.659Z,659.00
2024-04-23T08:28:20.676Z,662.00
2024-04-23T08:29:20.696Z,660.00
2024-04-23T08:30:20.739Z,679.00
2024-04-23T08:31:21.197Z,691.00
2024-04-23T08:32:20.782Z,720.00
2024-04-23T08:33:20.907Z,749.00
2024-04-23T08:34:20.882Z,783.00
2024-04-23T08:35:20.825Z,795.00
2024-04-23T08:36:21.178Z,815.00
2024-04-23T08:37:20.801Z,844.00
2024-04-23T08:38:20.834Z,870.00
2024-04-23T08:39:20.868Z,891.00
2024-04-23T08:40:20.919Z,904.00
2024-04-23T08:41:21.192Z,933.00
2024-04-23T08:42:21.039Z,943.00
2024-04-23T08:43:21.094Z,942.00
2024-04-23T08:44:21.133Z,971.00
2024-04-23T08:45:21.141Z,1025.00
2024-04-23T08:46:21.162Z,1025.00
2024-04-23T08:47:21.363Z,1026.00
2024-04-23T08:48:21.253Z,1043.00
2024-04-23T08:49:21.231Z,1049.00
2024-04-23T08:50:21.283Z,1053.00
2024-04-23T08:51:21.230Z,1045.00
2024-04-23T08:52:21.243Z,1067.00
2024-04-23T08:53:21.256Z,1079.00
2024-04-23T08:54:21.278Z,1067.00
2024-04-23T08:55:21.274Z,1063.00
2024-04-23T08:56:21.291Z,1065.00
2024-04-23T08:57:21.314Z,1015.00
2024-04-23T08:58:21.363Z,992.00
2024-04-23T08:59:21.408Z,929.00
2024-04-23T09:00:21.405Z,827.00
2024-04-23T09:01:21.448Z,770.00
2024-04-23T09:02:21.453Z,700.00
2024-04-23T09:03:21.465Z,657.00
2024-04-23T09:04:21.538Z,637.00
2024-04-23T09:05:24.034Z,625.00
2024-04-23T09:06:21.531Z,621.00
2024-04-23T09:07:27.834Z,620.00
2024-04-23T09:08:22.532Z,621.00
2024-04-23T09:09:21.592Z,627.00
2024-04-23T09:10:21.505Z,638.00
2024-04-23T09:11:21.556Z,656.00
2024-04-23T09:12:21.489Z,708.00
2024-04-23T09:13:21.489Z,717.00
2024-04-23T09:14:21.464Z,718.00
2024-04-23T09:15:21.453Z,834.00
2024-04-23T09:16:21.483Z,911.00
2024-04-23T09:17:21.644Z,908.00
2024-04-23T09:18:21.572Z,901.00
2024-04-23T09:19:21.545Z,909.00
2024-04-23T09:20:21.542Z,911.00
2024-04-23T09:21:21.551Z,901.00
2024-04-23T09:22:21.530Z,893.00
2024-04-23T09:23:21.503Z,905.00
2024-04-23T09:24:21.489Z,919.00
2024-04-23T09:25:21.532Z,932.00
2024-04-23T09:26:21.706Z,922.00
2024-04-23T09:27:21.517Z,946.00
2024-04-23T09:28:21.575Z,926.00
2024-04-23T09:29:21.586Z,863.00
2024-04-23T09:30:21.517Z,795.00
2024-04-23T09:31:21.731Z,779.00
2024-04-23T09:32:21.655Z,761.00
2024-04-23T09:33:21.683Z,728.00
2024-04-23T09:34:21.648Z,697.00
2024-04-23T09:35:21.829Z,689.00
2024-04-23T09:36:22.210Z,696.00
2024-04-23T09:37:21.821Z,728.00
2024-04-23T09:38:21.850Z,753.00
2024-04-23T09:39:21.866Z,732.00
2024-04-23T09:40:21.873Z,747.00
2024-04-23T09:41:22.220Z,777.00
2024-04-23T09:42:21.926Z,800.00
2024-04-23T09:43:21.971Z,843.00
2024-04-23T09:44:22.034Z,887.00
2024-04-23T09:45:22.093Z,883.00
2024-04-23T09:46:22.221Z,907.00
2024-04-23T09:47:22.198Z,903.00
2024-04-23T09:48:22.215Z,899.00
2024-04-23T09:49:22.144Z,918.00
2024-04-23T09:50:22.157Z,926.00
2024-04-23T09:51:22.163Z,930.00
2024-04-23T09:52:22.125Z,945.00
2024-04-23T09:53:22.132Z,949.00
2024-04-23T09:54:22.190Z,964.00
2024-04-23T09:55:22.230Z,975.00
2024-04-23T09:56:22.271Z,962.00
2024-04-23T09:57:22.281Z,951.00
2024-04-23T09:58:22.256Z,959.00
2024-04-23T09:59:22.291Z,957.00
2024-04-23T10:00:22.293Z,979.00
2024-04-23T10:01:22.317Z,986.00
2024-04-23T10:02:22.381Z,988.00
2024-04-23T10:03:22.437Z,974.00
2024-04-23T10:04:22.482Z,972.00
2024-04-23T10:05:22.578Z,978.00
2024-04-23T10:06:22.432Z,980.00
2024-04-23T10:07:22.446Z,976.00
2024-04-23T10:08:22.453Z,973.00
2024-04-23T10:09:22.448Z,970.00
2024-04-23T10:10:24.371Z,973.00
2024-04-23T10:11:22.564Z,979.00
2024-04-23T10:12:22.471Z,977.00
2024-04-23T10:13:22.493Z,967.00
2024-04-23T10:14:22.518Z,971.00
2024-04-23T10:15:22.515Z,960.00
2024-04-23T10:16:22.502Z,959.00
2024-04-23T10:17:22.489Z,958.00
2024-04-23T10:18:22.584Z,957.00
2024-04-23T10:19:22.467Z,961.00
2024-04-23T10:20:22.434Z,953.00
2024-04-23T10:21:22.755Z,946.00
2024-04-23T10:22:22.408Z,934.00
2024-04-23T10:23:22.393Z,895.00
2024-04-23T10:24:22.422Z,842.00
2024-04-23T10:25:22.459Z,826.00
2024-04-23T10:26:22.503Z,805.00
2024-04-23T10:27:22.452Z,813.00
2024-04-23T10:28:22.453Z,822.00
2024-04-23T10:29:22.441Z,830.00
2024-04-23T10:30:22.444Z,841.00
2024-04-23T10:31:22.734Z,873.00
2024-04-23T10:32:22.527Z,900.00
2024-04-23T10:33:22.615Z,914.00
2024-04-23T10:34:22.485Z,921.00
2024-04-23T10:35:22.508Z,931.00
2024-04-23T10:36:22.524Z,937.00
2024-04-23T10:37:22.548Z,942.00
2024-04-23T10:38:22.593Z,948.00
2024-04-23T10:39:22.576Z,945.00
2024-04-23T10:40:22.610Z,944.00
2024-04-23T10:41:22.656Z,944.00
2024-04-23T10:42:22.622Z,937.00
2024-04-23T10:43:22.635Z,933.00
2024-04-23T10:44:22.686Z,931.00
2024-04-23T10:45:22.680Z,939.00
2024-04-23T10:46:22.681Z,941.00
2024-04-23T10:47:22.809Z,933.00
2024-04-23T10:48:22.813Z,923.00
2024-04-23T10:49:22.741Z,918.00
2024-04-23T10:50:22.748Z,917.00
2024-04-23T10:51:22.756Z,916.00
2024-04-23T10:52:22.777Z,923.00
2024-04-23T10:53:22.756Z,928.00
2024-04-23T10:54:22.764Z,920.00
2024-04-23T10:55:22.743Z,916.00
2024-04-23T10:56:22.754Z,900.00
2024-04-23T10:57:22.761Z,889.00
2024-04-23T10:58:22.725Z,875.00
2024-04-23T10:59:23.217Z,843.00
2024-04-23T11:00:22.714Z,835.00
2024-04-23T11:01:22.746Z,841.00
2024-04-23T11:02:22.855Z,828.00
2024-04-23T11:03:23.046Z,826.00
2024-04-23T11:04:22.882Z,828.00
2024-04-23T11:05:22.874Z,833.00
2024-04-23T11:06:22.890Z,846.00
2024-04-23T11:07:22.878Z,864.00
2024-04-23T11:08:22.859Z,889.00
2024-04-23T11:09:22.873Z,897.00
2024-04-23T11:10:22.909Z,907.00
2024-04-23T11:11:23.503Z,910.00
2024-04-23T11:12:22.903Z,915.00
2024-04-23T11:13:22.901Z,912.00
2024-04-23T11:14:22.974Z,917.00
2024-04-23T11:15:22.935Z,931.00
2024-04-23T11:16:23.253Z,920.00
2024-04-23T11:17:23.433Z,924.00
2024-04-23T11:18:23.137Z,924.00
2024-04-23T11:19:22.927Z,936.00
2024-04-23T11:20:22.917Z,851.00
2024-04-23T11:21:22.909Z,782.00
2024-04-23T11:22:22.909Z,720.00
2024-04-23T11:23:22.904Z,723.00
2024-04-23T11:24:22.917Z,693.00
2024-04-23T11:25:22.926Z,659.00
2024-04-23T11:26:23.023Z,657.00
2024-04-23T11:27:22.930Z,643.00
2024-04-23T11:28:22.982Z,639.00
2024-04-23T11:29:22.973Z,637.00
2024-04-23T11:30:22.950Z,637.00
2024-04-23T11:31:22.988Z,636.00
2024-04-23T11:32:23.074Z,630.00
2024-04-23T11:33:23.052Z,624.00
2024-04-23T11:34:23.019Z,619.00
2024-04-23T11:35:23.095Z,615.00
2024-04-23T11:36:23.070Z,608.00
2024-04-23T11:37:23.071Z,601.00
2024-04-23T11:38:23.060Z,599.00
2024-04-23T11:39:23.046Z,600.00
2024-04-23T11:40:23.045Z,602.00
2024-04-23T11:41:23.033Z,601.00
2024-04-23T11:42:23.039Z,603.00
2024-04-23T11:43:23.053Z,600.00
2024-04-23T11:44:23.059Z,600.00
2024-04-23T11:45:23.027Z,603.00
2024-04-23T11:46:23.171Z,601.00
2024-04-23T11:47:26.539Z,600.00
2024-04-23T11:48:23.163Z,600.00
2024-04-23T11:49:23.055Z,599.00
2024-04-23T11:50:23.011Z,596.00
2024-04-23T11:51:22.983Z,594.00
2024-04-23T11:52:22.948Z,593.00
2024-04-23T11:53:22.919Z,602.00
2024-04-23T11:54:22.893Z,603.00
2024-04-23T11:55:22.867Z,601.00
2024-04-23T11:56:22.837Z,600.00
2024-04-23T11:57:22.825Z,601.00
2024-04-23T11:58:22.810Z,601.00
2024-04-23T11:59:22.760Z,601.00
2024-04-23T12:00:22.739Z,602.00
2024-04-23T12:01:22.716Z,602.00
2024-04-23T12:02:22.756Z,602.00
2024-04-23T12:03:22.767Z,603.00
2024-04-23T12:04:22.937Z,603.00
2024-04-23T12:05:22.908Z,600.00
2024-04-23T12:06:22.924Z,602.00
2024-04-23T12:07:22.830Z,599.00
2024-04-23T12:08:22.826Z,603.00
2024-04-23T12:09:22.805Z,602.00
2024-04-23T12:10:22.818Z,601.00
2024-04-23T12:11:22.938Z,603.00
2024-04-23T12:12:22.901Z,606.00
2024-04-23T12:13:22.919Z,605.00
2024-04-23T12:14:22.947Z,605.00
2024-04-23T12:15:22.982Z,605.00
2024-04-23T12:16:23.022Z,606.00
2024-04-23T12:17:23.092Z,607.00
2024-04-23T12:18:23.200Z,606.00
2024-04-23T12:19:23.108Z,605.00
2024-04-23T12:20:23.153Z,602.00
2024-04-23T12:21:23.156Z,603.00
2024-04-23T12:22:23.162Z,605.00
2024-04-23T12:23:23.169Z,600.00
2024-04-23T12:24:24.245Z,602.00